Anaconda, New Mexico
Current Conditions -  °F | °C
As of 5:17 PM on Wednesday 26 Nov 2014 (Local Time) from KGNT Reporting Station
Clear Clear  
Wind Chill: 37°   Ceiling: Unl
Heat Index: 43°   Visibility: 10mi
Dew Point: 16°   Wind: 9mph
Humidity: 34%   Direction: 320°NW
Pressure: 30.4"   Gusts: NA
Location:  35.2644°N, 107.733°W
Report Text: KGNT 270017Z AUTO 32008KT 10SM CLR 06/M09 A3040 RMK AO2
Loading
Personal Weather Stations






























Interactive Weather Map New forecast layout! Learn more

10-Day Weather Forecast

Advertisements
Track Severe Weather on mobile